createdAt,value
2023-02-22T00:02:25.637Z,4.20
2023-02-22T00:04:55.036Z,4.03
2023-02-22T00:07:26.198Z,4.10
2023-02-22T00:09:54.400Z,4.60
2023-02-22T00:12:22.573Z,4.60
2023-02-22T00:14:51.277Z,4.23
2023-02-22T00:17:20.752Z,4.20
2023-02-22T00:19:50.329Z,3.90
2023-02-22T00:22:19.153Z,4.07
2023-02-22T00:24:48.393Z,4.07
2023-02-22T00:27:16.983Z,4.03
2023-02-22T00:29:46.425Z,4.47
2023-02-22T00:32:15.488Z,4.87
2023-02-22T00:34:45.316Z,3.80
2023-02-22T00:37:13.387Z,4.23
2023-02-22T00:39:41.812Z,4.40
2023-02-22T00:42:09.919Z,4.40
2023-02-22T00:44:38.035Z,4.77
2023-02-22T00:47:06.137Z,4.60
2023-02-22T00:49:34.978Z,4.53
2023-02-22T00:52:05.396Z,4.70
2023-02-22T00:54:33.520Z,4.90
2023-02-22T00:57:01.673Z,4.47
2023-02-22T00:59:31.250Z,4.80
2023-02-22T01:01:59.782Z,4.70
2023-02-22T01:04:28.079Z,4.73
2023-02-22T01:06:56.373Z,4.60
2023-02-22T01:09:25.842Z,4.50
2023-02-22T01:11:56.472Z,4.60
2023-02-22T01:14:26.783Z,5.00
2023-02-22T01:16:55.572Z,5.03
2023-02-22T01:19:24.419Z,4.30
2023-02-22T01:21:52.898Z,4.90
2023-02-22T01:24:21.053Z,4.93
2023-02-22T01:26:53.630Z,5.17
2023-02-22T01:29:22.424Z,4.23
2023-02-22T01:31:55.704Z,5.47
2023-02-22T01:34:26.115Z,4.60
2023-02-22T01:36:54.238Z,4.30
2023-02-22T01:39:22.321Z,4.70
2023-02-22T01:41:53.763Z,4.80
2023-02-22T01:44:28.082Z,4.93
2023-02-22T01:46:56.530Z,4.37
2023-02-22T01:49:26.510Z,4.40
2023-02-22T01:51:59.048Z,4.67
2023-02-22T01:54:31.055Z,4.70
2023-02-22T01:57:06.524Z,5.10
2023-02-22T01:59:37.509Z,4.90
2023-02-22T02:02:06.274Z,4.47
2023-02-22T02:04:36.418Z,4.17
2023-02-22T02:07:08.965Z,5.30
2023-02-22T02:09:41.475Z,4.70
2023-02-22T02:12:13.699Z,4.83
2023-02-22T02:14:43.980Z,5.40
2023-02-22T02:17:14.404Z,6.60
2023-02-22T02:19:47.725Z,10.63
2023-02-22T02:22:31.624Z,9.40
2023-02-22T02:25:26.649Z,8.60
2023-02-22T02:28:28.367Z,6.13
2023-02-22T02:31:27.967Z,5.73
2023-02-22T02:34:02.202Z,9.90
2023-02-22T02:36:34.281Z,6.97
2023-02-22T02:39:10.385Z,6.30
2023-02-22T02:41:44.282Z,5.63
2023-02-22T02:44:17.045Z,5.43
2023-02-22T02:46:51.564Z,4.97
2023-02-22T02:49:26.633Z,4.90
2023-02-22T02:51:57.681Z,5.30
2023-02-22T02:54:26.588Z,4.73
2023-02-22T02:56:54.695Z,5.07
2023-02-22T02:59:29.275Z,5.10
2023-02-22T03:02:14.005Z,5.10
2023-02-22T03:04:54.688Z,6.13
2023-02-22T03:07:39.088Z,6.40
2023-02-22T03:10:22.337Z,5.30
2023-02-22T03:12:58.773Z,7.50
2023-02-22T03:15:36.952Z,7.80
2023-02-22T03:18:09.197Z,4.87
2023-02-22T03:20:46.629Z,5.33
2023-02-22T03:23:25.479Z,5.80
2023-02-22T03:25:57.269Z,4.90
2023-02-22T03:28:29.005Z,5.30
2023-02-22T03:31:02.172Z,5.50
2023-02-22T03:33:36.602Z,5.50
2023-02-22T03:36:13.577Z,4.80
2023-02-22T03:38:44.035Z,5.47
2023-02-22T03:41:15.405Z,4.20
2023-02-22T03:43:47.314Z,4.90
2023-02-22T03:46:19.401Z,5.10
2023-02-22T03:48:54.208Z,5.23
2023-02-22T03:51:25.045Z,5.50
2023-02-22T03:53:53.833Z,5.40
2023-02-22T03:56:25.176Z,5.40
2023-02-22T03:58:53.919Z,5.67
2023-02-22T04:01:23.937Z,6.27
2023-02-22T04:03:52.023Z,5.40
2023-02-22T04:06:20.220Z,6.07
2023-02-22T04:08:49.858Z,6.07
2023-02-22T04:11:18.348Z,5.47
2023-02-22T04:13:46.582Z,6.07
2023-02-22T04:16:14.753Z,5.90
2023-02-22T04:18:42.981Z,5.53
2023-02-22T04:21:11.252Z,5.40
2023-02-22T04:23:39.342Z,5.17
2023-02-22T04:26:08.812Z,5.37
2023-02-22T04:28:36.924Z,5.23
2023-02-22T04:31:05.366Z,5.20
2023-02-22T04:33:33.755Z,6.17
2023-02-22T04:36:01.922Z,5.47
2023-02-22T04:38:30.136Z,5.90
2023-02-22T04:40:58.335Z,6.23
2023-02-22T04:43:27.940Z,6.60
2023-02-22T04:45:56.062Z,6.50
2023-02-22T04:48:24.310Z,6.20
2023-02-22T04:50:52.415Z,8.27
2023-02-22T04:53:20.541Z,6.10
2023-02-22T04:55:48.805Z,6.17
2023-02-22T04:58:16.971Z,5.70
2023-02-22T05:00:46.766Z,6.37
2023-02-22T05:03:15.571Z,5.90
2023-02-22T05:05:43.944Z,5.83
2023-02-22T05:08:12.101Z,6.03
2023-02-22T05:10:40.155Z,5.73
2023-02-22T05:13:09.359Z,6.10
2023-02-22T05:15:37.689Z,6.00
2023-02-22T05:18:07.305Z,7.40
2023-02-22T05:20:37.090Z,14.90
2023-02-22T05:23:07.826Z,10.20
2023-02-22T05:25:35.923Z,10.87
2023-02-22T05:28:06.014Z,10.47
2023-02-22T05:30:44.169Z,9.73
2023-02-22T05:33:14.238Z,7.43
2023-02-22T05:35:42.384Z,5.80
2023-02-22T05:38:12.405Z,6.83
2023-02-22T05:40:40.516Z,6.20
2023-02-22T05:43:08.825Z,6.83
2023-02-22T05:45:37.352Z,7.03
2023-02-22T05:48:05.978Z,8.03
2023-02-22T05:50:36.116Z,11.33
2023-02-22T05:53:05.791Z,15.83
2023-02-22T05:55:35.025Z,8.47
2023-02-22T05:58:05.922Z,6.30
2023-02-22T06:00:34.527Z,8.27
2023-02-22T06:03:07.052Z,7.83
2023-02-22T06:05:37.375Z,6.90
2023-02-22T06:08:07.591Z,7.60
2023-02-22T06:10:36.073Z,7.23
2023-02-22T06:13:05.792Z,6.97
2023-02-22T06:15:34.406Z,6.33
2023-02-22T06:18:03.821Z,6.90
2023-02-22T06:20:33.483Z,6.83
2023-02-22T06:23:02.991Z,7.43
2023-02-22T06:25:32.880Z,6.57
2023-02-22T06:28:02.150Z,6.73
2023-02-22T06:30:31.314Z,6.93
2023-02-22T06:32:59.499Z,6.63
2023-02-22T06:35:27.989Z,6.00
2023-02-22T06:37:56.150Z,6.27
2023-02-22T06:40:29.623Z,6.30
2023-02-22T06:42:58.496Z,6.30
2023-02-22T06:45:27.225Z,10.43
2023-02-22T06:47:55.770Z,7.87
2023-02-22T06:50:27.225Z,7.30
2023-02-22T06:52:55.881Z,6.87
2023-02-22T06:55:27.040Z,6.10
2023-02-22T06:57:55.200Z,6.20
2023-02-22T07:00:28.953Z,8.73
2023-02-22T07:02:57.777Z,6.23
2023-02-22T07:05:27.888Z,5.90
2023-02-22T07:07:57.644Z,6.17
2023-02-22T07:10:29.701Z,6.80
2023-02-22T07:12:57.869Z,5.47
2023-02-22T07:15:28.691Z,5.93
2023-02-22T07:17:57.144Z,6.20
2023-02-22T07:20:26.730Z,6.30
2023-02-22T07:22:54.954Z,6.40
2023-02-22T07:25:24.539Z,6.33
2023-02-22T07:27:54.155Z,6.37
2023-02-22T07:30:26.184Z,5.70
2023-02-22T07:32:55.685Z,5.43
2023-02-22T07:35:26.448Z,5.60
2023-02-22T07:37:56.848Z,5.60
2023-02-22T07:40:26.122Z,5.33
2023-02-22T07:42:58.037Z,6.13
2023-02-22T07:45:28.327Z,6.43
2023-02-22T07:47:57.189Z,6.07
2023-02-22T07:50:26.615Z,6.07
2023-02-22T07:52:56.939Z,5.73
2023-02-22T07:55:27.409Z,6.20
2023-02-22T07:57:59.356Z,5.60
2023-02-22T08:00:29.448Z,5.67
2023-02-22T08:02:58.332Z,5.90
2023-02-22T08:05:28.104Z,6.10
2023-02-22T08:07:56.670Z,6.90
2023-02-22T08:10:26.696Z,6.50
2023-02-22T08:12:57.110Z,6.93
2023-02-22T08:15:29.566Z,6.80
2023-02-22T08:17:58.893Z,5.30
2023-02-22T08:20:27.208Z,5.03
2023-02-22T08:22:56.423Z,5.83
2023-02-22T08:25:27.316Z,6.40
2023-02-22T08:28:01.367Z,6.13
2023-02-22T08:30:31.268Z,5.33
2023-02-22T08:33:00.686Z,6.00
2023-02-22T08:35:28.971Z,6.50
2023-02-22T08:38:00.132Z,6.40
2023-02-22T08:40:31.173Z,6.37
2023-02-22T08:43:01.683Z,5.70
2023-02-22T08:45:30.569Z,6.67
2023-02-22T08:47:59.355Z,5.70
2023-02-22T08:50:29.362Z,5.30
2023-02-22T08:52:59.440Z,5.23
2023-02-22T08:55:32.396Z,6.50
2023-02-22T08:58:03.843Z,6.93
2023-02-22T09:00:34.296Z,5.20
2023-02-22T09:03:04.032Z,5.70
2023-02-22T09:05:32.483Z,5.03
2023-02-22T09:08:01.056Z,6.00
2023-02-22T09:10:31.068Z,6.13
2023-02-22T09:13:02.386Z,6.57
2023-02-22T09:15:31.780Z,6.27
2023-02-22T09:18:00.752Z,6.97
2023-02-22T09:20:29.732Z,5.43
2023-02-22T09:22:58.220Z,6.33
2023-02-22T09:25:27.285Z,5.50
2023-02-22T09:27:56.310Z,6.30
2023-02-22T09:30:32.238Z,5.30
2023-02-22T09:33:02.290Z,6.10
2023-02-22T09:35:30.682Z,5.43
2023-02-22T09:38:01.515Z,5.87
2023-02-22T09:40:32.632Z,5.77
2023-02-22T09:43:15.208Z,6.40
2023-02-22T09:46:03.213Z,5.90
2023-02-22T09:48:33.130Z,5.10
2023-02-22T09:51:04.315Z,5.70
2023-02-22T09:53:37.093Z,5.53
2023-02-22T09:56:11.177Z,5.40
2023-02-22T09:58:43.194Z,5.40
2023-02-22T10:01:28.393Z,5.43
2023-02-22T10:04:03.151Z,6.07
2023-02-22T10:06:33.641Z,5.50
2023-02-22T10:09:08.058Z,5.53
2023-02-22T10:11:52.413Z,5.30
2023-02-22T10:14:44.219Z,5.80
2023-02-22T10:17:24.120Z,4.87
2023-02-22T10:20:06.246Z,5.50
2023-02-22T10:22:46.155Z,5.30
2023-02-22T10:25:18.170Z,5.70
2023-02-22T10:27:50.212Z,5.50
2023-02-22T10:30:25.244Z,5.20
2023-02-22T10:33:00.848Z,6.43
2023-02-22T10:35:31.511Z,5.93
2023-02-22T10:38:05.437Z,6.10
2023-02-22T10:40:33.846Z,6.53
2023-02-22T10:43:06.583Z,6.43
2023-02-22T10:45:37.252Z,6.37
2023-02-22T10:48:11.722Z,6.70
2023-02-22T10:50:42.428Z,6.13
2023-02-22T10:53:11.598Z,6.60
2023-02-22T10:56:24.406Z,6.10
2023-02-22T10:58:55.694Z,6.10
2023-02-22T11:01:28.260Z,6.30
2023-02-22T11:04:04.296Z,7.10
2023-02-22T11:06:35.486Z,6.17
2023-02-22T11:09:11.509Z,6.00
2023-02-22T11:11:41.334Z,6.43
2023-02-22T11:14:10.864Z,6.00
2023-02-22T11:16:41.818Z,5.37
2023-02-22T11:19:24.169Z,5.03
2023-02-22T11:21:55.471Z,5.33
2023-02-22T11:24:30.291Z,5.20
2023-02-22T11:27:07.614Z,4.20
2023-02-22T11:29:38.328Z,3.90
2023-02-22T11:32:22.613Z,4.50
2023-02-22T11:35:03.577Z,4.20
2023-02-22T11:37:38.256Z,4.23
2023-02-22T11:40:14.009Z,3.60
2023-02-22T11:42:42.177Z,2.80
2023-02-22T11:45:20.844Z,3.33
2023-02-22T11:47:59.175Z,2.83
2023-02-22T11:50:32.039Z,3.73
2023-02-22T11:53:25.415Z,3.30
2023-02-22T11:56:10.703Z,2.90
2023-02-22T11:58:47.325Z,3.13
2023-02-22T12:01:26.475Z,2.60
2023-02-22T12:04:40.421Z,3.37
2023-02-22T12:07:38.275Z,3.30
2023-02-22T12:10:22.898Z,3.10
2023-02-22T12:13:09.796Z,3.67
2023-02-22T12:15:43.983Z,3.47
2023-02-22T12:18:25.914Z,3.13
2023-02-22T12:20:58.636Z,3.20
2023-02-22T12:23:32.619Z,3.00
2023-02-22T12:26:06.827Z,3.40
2023-02-22T12:28:39.445Z,3.47
2023-02-22T12:31:21.140Z,3.10
2023-02-22T12:33:56.824Z,3.23
2023-02-22T12:36:33.616Z,2.80
2023-02-22T12:39:07.597Z,3.03
2023-02-22T12:41:46.011Z,3.27
2023-02-22T12:44:20.367Z,3.20
2023-02-22T12:46:52.754Z,3.77
2023-02-22T12:49:28.328Z,3.53
2023-02-22T12:52:21.262Z,3.87
2023-02-22T12:54:57.634Z,3.93
2023-02-22T12:57:38.031Z,3.60
2023-02-22T13:00:11.298Z,4.17
2023-02-22T13:02:45.291Z,3.60
2023-02-22T13:05:17.864Z,3.87
2023-02-22T13:07:57.713Z,3.70
2023-02-22T13:10:36.667Z,3.93
2023-02-22T13:13:16.398Z,4.23
2023-02-22T13:15:52.755Z,3.90
2023-02-22T13:18:27.684Z,3.83
2023-02-22T13:21:02.091Z,3.20
2023-02-22T13:23:44.411Z,3.30
2023-02-22T13:26:21.568Z,3.33
2023-02-22T13:28:59.743Z,3.53
2023-02-22T13:31:42.120Z,4.00
2023-02-22T13:34:54.381Z,2.77
2023-02-22T13:37:47.192Z,4.00
2023-02-22T13:40:44.672Z,3.37
2023-02-22T13:43:29.399Z,3.30
2023-02-22T13:46:28.287Z,3.43
2023-02-22T13:49:31.607Z,3.30
2023-02-22T13:52:02.310Z,3.67
2023-02-22T13:54:41.653Z,3.87
2023-02-22T13:57:21.295Z,3.90
2023-02-22T13:59:49.690Z,3.70
2023-02-22T14:02:58.976Z,3.57
2023-02-22T14:05:51.640Z,4.30
2023-02-22T14:08:47.946Z,4.00
2023-02-22T14:11:56.853Z,3.70
2023-02-22T14:14:25.884Z,4.50
2023-02-22T14:17:23.325Z,4.10
2023-02-22T14:20:32.232Z,3.60
2023-02-22T14:23:31.182Z,3.43
2023-02-22T14:26:12.797Z,3.60
2023-02-22T14:28:48.810Z,3.20
2023-02-22T14:31:34.403Z,3.17
2023-02-22T14:34:07.803Z,3.20
2023-02-22T14:36:46.047Z,2.67
2023-02-22T14:39:20.955Z,3.67
2023-02-22T14:41:57.655Z,3.77
2023-02-22T14:44:30.440Z,3.37
2023-02-22T14:47:02.586Z,3.40
2023-02-22T14:49:36.238Z,3.27
2023-02-22T14:52:16.156Z,2.80
2023-02-22T14:54:58.097Z,3.63
2023-02-22T14:57:33.333Z,3.10
2023-02-22T15:00:19.775Z,3.20
2023-02-22T15:02:49.501Z,2.73
2023-02-22T15:05:20.999Z,2.60
2023-02-22T15:07:56.902Z,3.17
2023-02-22T15:10:29.388Z,2.90
2023-02-22T15:13:09.876Z,2.60
2023-02-22T15:15:40.825Z,4.43
2023-02-22T15:18:22.093Z,2.80
2023-02-22T15:20:56.245Z,3.00
2023-02-22T15:23:33.403Z,2.80
2023-02-22T15:26:01.971Z,3.60
2023-02-22T15:28:32.316Z,3.03
2023-02-22T15:31:18.335Z,2.77
2023-02-22T15:33:47.173Z,2.50
2023-02-22T15:36:17.922Z,3.10
2023-02-22T15:38:51.560Z,3.00
2023-02-22T15:41:28.027Z,2.70
2023-02-22T15:44:14.231Z,3.40
2023-02-22T15:46:49.735Z,3.30
2023-02-22T15:49:24.692Z,3.77
2023-02-22T15:52:06.967Z,3.07
2023-02-22T15:54:49.049Z,2.90
2023-02-22T15:57:20.315Z,3.20
2023-02-22T15:59:56.114Z,3.00
2023-02-22T16:02:35.917Z,2.77
2023-02-22T16:05:08.617Z,3.10
2023-02-22T16:07:45.448Z,3.20
2023-02-22T16:10:33.870Z,3.33
2023-02-22T16:13:16.641Z,3.27
2023-02-22T16:15:57.631Z,3.10
2023-02-22T16:18:31.271Z,3.50
2023-02-22T16:21:01.439Z,2.93
2023-02-22T16:23:30.911Z,3.60
2023-02-22T16:26:25.389Z,4.17
2023-02-22T16:28:56.311Z,3.17
2023-02-22T16:31:26.439Z,3.90
2023-02-22T16:33:55.227Z,3.00
2023-02-22T16:36:37.761Z,3.23
2023-02-22T16:39:07.683Z,3.83
2023-02-22T16:41:37.381Z,4.00
2023-02-22T16:44:07.825Z,3.67
2023-02-22T16:46:38.058Z,3.20
2023-02-22T16:49:06.677Z,4.00
2023-02-22T16:51:42.168Z,3.70
2023-02-22T16:54:14.030Z,3.17
2023-02-22T16:56:43.669Z,3.10
2023-02-22T16:59:15.460Z,2.70
2023-02-22T17:01:44.488Z,4.43
2023-02-22T17:04:17.732Z,3.03
2023-02-22T17:06:46.201Z,3.00
2023-02-22T17:09:16.517Z,2.90
2023-02-22T17:11:46.471Z,3.00
2023-02-22T17:14:19.237Z,2.47
2023-02-22T17:16:47.850Z,2.80
2023-02-22T17:19:17.682Z,3.87
2023-02-22T17:21:45.917Z,3.27
2023-02-22T17:24:14.515Z,3.03
2023-02-22T17:26:45.484Z,3.10
2023-02-22T17:29:15.358Z,2.77
2023-02-22T17:31:44.256Z,3.70
2023-02-22T17:34:12.646Z,3.53
2023-02-22T17:36:40.930Z,3.37
2023-02-22T17:39:10.743Z,3.67
2023-02-22T17:41:40.697Z,4.30
2023-02-22T17:44:10.876Z,7.10
2023-02-22T17:46:40.928Z,5.67
2023-02-22T17:49:09.295Z,4.50
2023-02-22T17:51:42.654Z,3.47
2023-02-22T17:54:10.825Z,3.10
2023-02-22T17:56:38.932Z,4.60
2023-02-22T17:59:09.198Z,4.50
2023-02-22T18:01:39.271Z,6.70
2023-02-22T18:04:07.853Z,4.80
2023-02-22T18:06:38.120Z,5.40
2023-02-22T18:09:10.759Z,3.73
2023-02-22T18:11:41.086Z,3.37
2023-02-22T18:14:10.923Z,4.23
2023-02-22T18:16:41.591Z,3.73
2023-02-22T18:19:09.833Z,3.77
2023-02-22T18:21:38.701Z,3.97
2023-02-22T18:24:08.764Z,3.40
2023-02-22T18:26:39.095Z,3.40
2023-02-22T18:29:07.391Z,3.97
2023-02-22T18:31:35.699Z,4.03
2023-02-22T18:34:05.454Z,3.50
2023-02-22T18:36:34.044Z,3.80
2023-02-22T18:39:03.286Z,4.43
2023-02-22T18:41:31.430Z,4.50
2023-02-22T18:44:00.529Z,4.27
2023-02-22T18:46:30.288Z,3.63
2023-02-22T18:48:59.254Z,3.13
2023-02-22T18:51:30.059Z,3.90
2023-02-22T18:54:01.067Z,4.03
2023-02-22T18:56:30.939Z,3.63
2023-02-22T18:59:00.486Z,4.30
2023-02-22T19:01:29.426Z,3.27
2023-02-22T19:03:57.752Z,4.90
2023-02-22T19:06:26.039Z,4.40
2023-02-22T19:08:55.557Z,4.03
2023-02-22T19:11:25.695Z,3.70
2023-02-22T19:13:58.260Z,3.67
2023-02-22T19:16:27.865Z,3.47
2023-02-22T19:18:58.116Z,3.50
2023-02-22T19:21:27.740Z,3.07
2023-02-22T19:23:57.336Z,3.47
2023-02-22T19:26:27.707Z,3.33
2023-02-22T19:28:57.706Z,3.80
2023-02-22T19:31:30.300Z,2.97
2023-02-22T19:34:02.089Z,3.33
2023-02-22T19:36:30.599Z,3.57
2023-02-22T19:39:02.058Z,3.47
2023-02-22T19:41:30.718Z,4.07
2023-02-22T19:43:59.451Z,4.20
2023-02-22T19:46:28.303Z,4.30
2023-02-22T19:48:57.818Z,5.27
2023-02-22T19:51:28.847Z,4.07
2023-02-22T19:53:59.928Z,4.17
2023-02-22T19:56:31.179Z,5.83
2023-02-22T19:59:01.334Z,4.70
2023-02-22T20:01:33.277Z,5.87
2023-02-22T20:04:03.852Z,7.20
2023-02-22T20:06:35.167Z,4.87
2023-02-22T20:09:04.287Z,5.40
2023-02-22T20:11:34.445Z,5.80
2023-02-22T20:14:02.618Z,6.97
2023-02-22T20:16:31.219Z,7.70
2023-02-22T20:18:59.958Z,6.33
2023-02-22T20:21:31.292Z,5.90
2023-02-22T20:23:59.454Z,5.90
2023-02-22T20:26:30.607Z,5.20
2023-02-22T20:29:00.854Z,4.80
2023-02-22T20:31:29.707Z,5.13
2023-02-22T20:34:00.485Z,6.23
2023-02-22T20:36:30.129Z,6.87
2023-02-22T20:39:00.095Z,5.03
2023-02-22T20:41:29.974Z,6.83
2023-02-22T20:44:00.709Z,6.60
2023-02-22T20:46:31.887Z,6.07
2023-02-22T20:49:01.621Z,5.93
2023-02-22T20:51:30.199Z,5.87
2023-02-22T20:54:00.050Z,6.33
2023-02-22T20:56:30.095Z,7.30
2023-02-22T20:59:02.297Z,7.20
2023-02-22T21:01:30.888Z,8.27
2023-02-22T21:04:02.130Z,7.60
2023-02-22T21:06:31.068Z,6.70
2023-02-22T21:09:02.739Z,7.33
2023-02-22T21:11:32.653Z,8.60
2023-02-22T21:14:03.074Z,8.10
2023-02-22T21:16:34.127Z,6.60
2023-02-22T21:19:04.389Z,8.37
2023-02-22T21:21:32.943Z,5.43
2023-02-22T21:24:02.228Z,5.23
2023-02-22T21:26:32.366Z,6.13
2023-02-22T21:29:04.915Z,5.13
2023-02-22T21:31:34.746Z,4.73
2023-02-22T21:34:04.281Z,5.40
2023-02-22T21:36:33.207Z,4.30
2023-02-22T21:39:08.596Z,4.90
2023-02-22T21:41:39.209Z,4.40
2023-02-22T21:44:10.142Z,4.20
2023-02-22T21:46:38.485Z,7.03
2023-02-22T21:49:06.753Z,5.63
2023-02-22T21:51:37.814Z,6.03
2023-02-22T21:54:08.704Z,5.90
2023-02-22T21:56:38.649Z,5.60
2023-02-22T21:59:12.780Z,6.07
2023-02-22T22:01:47.305Z,7.47
2023-02-22T22:04:18.970Z,7.70
2023-02-22T22:06:48.791Z,6.90
2023-02-22T22:09:20.222Z,4.90
2023-02-22T22:11:50.791Z,7.07
2023-02-22T22:14:22.070Z,6.60
2023-02-22T22:16:51.356Z,6.20
2023-02-22T22:19:19.571Z,5.90
2023-02-22T22:21:49.317Z,4.20
2023-02-22T22:24:20.629Z,3.83
2023-02-22T22:26:51.202Z,4.73
2023-02-22T22:29:20.771Z,4.90
2023-02-22T22:31:49.021Z,3.80
2023-02-22T22:34:17.524Z,4.53
2023-02-22T22:36:45.943Z,4.00
2023-02-22T22:39:14.159Z,5.20
2023-02-22T22:41:44.161Z,4.00
2023-02-22T22:44:15.391Z,4.17
2023-02-22T22:46:49.271Z,4.37
2023-02-22T22:49:18.533Z,5.17
2023-02-22T22:51:47.530Z,4.70
2023-02-22T22:54:16.077Z,3.70
2023-02-22T22:56:44.330Z,5.20
2023-02-22T22:59:13.547Z,4.47
2023-02-22T23:01:45.419Z,4.70
2023-02-22T23:04:16.535Z,4.77
2023-02-22T23:06:46.294Z,4.57
2023-02-22T23:09:18.901Z,5.47
2023-02-22T23:11:50.987Z,5.03
2023-02-22T23:14:21.038Z,6.37
2023-02-22T23:16:52.348Z,4.93
2023-02-22T23:19:20.992Z,5.63
2023-02-22T23:21:50.892Z,4.30
2023-02-22T23:24:21.391Z,4.40
2023-02-22T23:26:49.940Z,4.67
2023-02-22T23:29:19.943Z,5.47
2023-02-22T23:31:49.089Z,4.97
2023-02-22T23:34:21.363Z,4.20
2023-02-22T23:36:50.189Z,4.60
2023-02-22T23:39:21.576Z,4.70
2023-02-22T23:41:51.652Z,4.13
2023-02-22T23:44:20.301Z,5.27
2023-02-22T23:46:49.836Z,4.57
2023-02-22T23:49:20.642Z,4.73
2023-02-22T23:51:50.298Z,4.43
2023-02-22T23:54:20.419Z,4.80
2023-02-22T23:56:56.720Z,4.47
2023-02-22T23:59:25.991Z,5.00
